createdAt,value
2018-12-23T00:01:26.529Z,8.57
2018-12-23T00:06:29.555Z,8.90
2018-12-23T00:11:32.800Z,9.00
2018-12-23T00:16:35.549Z,8.60
2018-12-23T00:21:39.527Z,9.30
2018-12-23T00:26:42.288Z,9.33
2018-12-23T00:31:45.456Z,8.87
2018-12-23T00:36:49.440Z,9.20
2018-12-23T00:41:52.253Z,9.20
2018-12-23T00:46:55.069Z,9.03
2018-12-23T00:51:57.813Z,9.60
2018-12-23T00:57:00.549Z,9.03
2018-12-23T01:02:03.530Z,9.67
2018-12-23T01:07:06.586Z,9.80
2018-12-23T01:12:09.424Z,10.53
2018-12-23T01:17:12.366Z,10.13
2018-12-23T01:22:15.265Z,11.50
2018-12-23T01:27:18.343Z,12.60
2018-12-23T01:32:21.032Z,13.13
2018-12-23T01:37:23.823Z,13.33
2018-12-23T01:42:26.615Z,12.80
2018-12-23T01:47:29.494Z,13.23
2018-12-23T01:52:32.463Z,12.53
2018-12-23T01:57:35.378Z,12.50
2018-12-23T02:02:38.234Z,12.17
2018-12-23T02:07:41.116Z,10.87
2018-12-23T02:12:44.010Z,11.33
2018-12-23T02:17:46.832Z,11.53
2018-12-23T02:22:49.784Z,12.30
2018-12-23T02:27:52.510Z,10.27
2018-12-23T02:32:55.373Z,12.20
2018-12-23T02:37:58.263Z,12.07
2018-12-23T02:43:01.022Z,11.60
2018-12-23T02:48:03.952Z,11.60
2018-12-23T02:53:06.903Z,10.97
2018-12-23T02:58:09.653Z,11.87
2018-12-23T03:03:12.480Z,12.17
2018-12-23T03:08:15.473Z,11.97
2018-12-23T03:13:18.694Z,12.23
2018-12-23T03:18:21.718Z,12.37
2018-12-23T03:23:24.381Z,13.07
2018-12-23T03:28:27.253Z,13.27
2018-12-23T03:33:30.243Z,13.60
2018-12-23T03:38:33.053Z,13.07
2018-12-23T03:43:35.949Z,13.10
2018-12-23T03:48:38.516Z,12.17
2018-12-23T03:53:41.334Z,12.47
2018-12-23T03:58:44.233Z,12.47
2018-12-23T04:03:46.854Z,11.20
2018-12-23T04:08:49.662Z,11.87
2018-12-23T04:13:52.226Z,11.90
2018-12-23T04:18:55.138Z,11.80
2018-12-23T04:23:57.806Z,11.93
2018-12-23T04:29:00.671Z,12.23
2018-12-23T04:34:03.651Z,11.83
2018-12-23T04:39:06.493Z,11.63
2018-12-23T04:44:09.144Z,11.93
2018-12-23T04:49:11.920Z,11.97
2018-12-23T04:54:14.673Z,11.37
2018-12-23T04:59:17.633Z,10.53
2018-12-23T05:04:20.254Z,9.80
2018-12-23T05:09:22.928Z,10.97
2018-12-23T05:14:25.838Z,11.83
2018-12-23T05:19:29.258Z,11.33
2018-12-23T05:24:32.043Z,13.50
2018-12-23T05:29:34.912Z,12.80
2018-12-23T05:34:37.764Z,12.83
2018-12-23T05:39:40.459Z,13.60
2018-12-23T05:44:43.306Z,12.90
2018-12-23T05:49:46.186Z,12.00
2018-12-23T05:54:48.883Z,11.53
2018-12-23T05:59:51.759Z,12.00
2018-12-23T06:04:54.522Z,12.23
2018-12-23T06:09:57.317Z,12.53
2018-12-23T06:15:00.276Z,12.10
2018-12-23T06:20:03.377Z,11.17
2018-12-23T06:25:06.125Z,12.00
2018-12-23T06:30:09.021Z,11.80
2018-12-23T06:35:11.787Z,11.93
2018-12-23T06:40:14.652Z,11.97
2018-12-23T06:45:17.312Z,11.60
2018-12-23T06:50:20.102Z,12.47
2018-12-23T06:55:22.940Z,12.40
2018-12-23T07:00:25.756Z,12.57
2018-12-23T07:05:28.667Z,12.30
2018-12-23T07:10:31.433Z,11.97
2018-12-23T07:15:34.274Z,11.50
2018-12-23T07:20:37.369Z,11.97
2018-12-23T07:25:40.298Z,11.90
2018-12-23T07:30:44.197Z,11.27
2018-12-23T07:35:46.918Z,10.80
2018-12-23T07:40:49.708Z,11.20
2018-12-23T07:45:53.174Z,11.23
2018-12-23T07:50:56.372Z,11.30
2018-12-23T07:55:59.478Z,10.67
2018-12-23T08:01:02.298Z,9.77
2018-12-23T08:06:05.260Z,9.47
2018-12-23T08:11:08.044Z,9.57
2018-12-23T08:16:10.883Z,8.80
2018-12-23T08:21:13.757Z,9.00
2018-12-23T08:26:16.549Z,8.43
2018-12-23T08:31:19.268Z,8.30
2018-12-23T08:36:22.150Z,9.20
2018-12-23T08:41:24.923Z,8.60
2018-12-23T08:47:02.689Z,7.83
2018-12-23T23:32:25.828Z,5.93
2018-12-23T23:37:29.706Z,5.60
2018-12-23T23:42:33.269Z,4.70
2018-12-23T23:47:56.240Z,4.23
2018-12-23T23:53:11.973Z,4.57
2018-12-23T23:58:34.618Z,4.83
